Fidato — PB5970 — position and weather

sailwx.info

Track history (hours):
 
Tides and Currents Weather Stations Pressure Air Temp Water Temp Dewpoint Dewpoint Depression Visibility Wind Speed Wind Dir Waves Ship Positions

Fidato

Last reported at 2016-Feb-10 10:33 UTC. Time now 2016-Feb-10 10:51 UTC.
Position N 51°15' E 004°25'.

Length 135 m; draft 2.5 m.

Type: Ship. MMSI: 244670975.

Date/timePositionNaut miles runAvg speedWind from/ knotsBaromVisibWave heightAir tempDewpointWater temp
2016-Feb-10 10:33N 51°15' E 004°25'0 0.0
2016-Feb-10 09:33N 51°15' E 004°25'0 0.0
2016-Feb-10 08:33N 51°15' E 004°25'0 0.0
2016-Feb-10 07:34N 51°15' E 004°25'0 0.0
2016-Feb-10 06:33N 51°15' E 004°25'0 0.0
2016-Feb-10 05:34N 51°15' E 004°25'0 0.0
2016-Feb-10 04:33N 51°15' E 004°25'0 0.0
2016-Feb-10 03:33N 51°15' E 004°25'0 0.0
2016-Feb-10 02:33N 51°15' E 004°25'0 0.0
2016-Feb-10 01:34N 51°15' E 004°25'0 0.0
2016-Feb-10 00:33N 51°15' E 004°25'0 0.0
2016-Feb-09 23:33N 51°15' E 004°25'0 0.0
2016-Feb-09 22:34N 51°15' E 004°25'0 0.0
2016-Feb-09 21:33N 51°15' E 004°25'0 0.0
2016-Feb-09 20:33N 51°15' E 004°25'0 0.0
2016-Feb-09 19:34N 51°15' E 004°25'0 0.0
2016-Feb-09 18:34N 51°15' E 004°25'0 0.0
2016-Feb-09 17:33N 51°15' E 004°25'0 0.0
2016-Feb-09 16:33N 51°15' E 004°25'0 0.0
2016-Feb-09 15:34N 51°15' E 004°25'0 0.0
2016-Feb-09 14:33N 51°15' E 004°25'0 0.0
2016-Feb-09 13:34N 51°15' E 004°25'0 0.0
2016-Feb-09 12:33N 51°15' E 004°25'0 0.0
2016-Feb-09 11:34N 51°15' E 004°25'0 0.0
2016-Feb-09 10:34N 51°15' E 004°25'0 0.0
2016-Feb-09 09:33N 51°15' E 004°25'0 0.0
2016-Feb-09 08:34N 51°15' E 004°25'0 0.0
2016-Feb-09 07:33N 51°15' E 004°25'0 0.0
2016-Feb-09 06:34N 51°15' E 004°25'0 0.0
2016-Feb-09 05:33N 51°15' E 004°25'0 0.1
2016-Feb-09 04:33N 51°15' E 004°24'0 0.0
2016-Feb-09 03:33N 51°15' E 004°24'0 0.0
2016-Feb-09 02:34N 51°15' E 004°24'0 0.0
2016-Feb-09 01:33N 51°15' E 004°24'0 0.0
2016-Feb-09 00:33N 51°15' E 004°24'0 0.0
2016-Feb-08 23:34N 51°15' E 004°24'0 0.0
2016-Feb-08 22:33N 51°15' E 004°24'0 0.0
2016-Feb-08 21:34N 51°15' E 004°24'0 0.0
2016-Feb-08 20:33N 51°15' E 004°24'0 0.0
2016-Feb-08 19:33N 51°15' E 004°24'0 0.0
2016-Feb-08 18:33N 51°15' E 004°24'0 0.0
2016-Feb-08 17:34N 51°15' E 004°24'0 0.0
2016-Feb-08 16:33N 51°15' E 004°24'0 0.0
2016-Feb-08 15:33N 51°15' E 004°24'0 0.0
2016-Feb-08 14:34N 51°15' E 004°24'0 0.0
2016-Feb-08 13:33N 51°15' E 004°24'0 0.0
2016-Feb-08 12:33N 51°15' E 004°24'0 0.0
2016-Feb-08 11:33N 51°15' E 004°24'1 0.8
2016-Feb-08 10:33N 51°15' E 004°24'6 6.2
2016-Feb-08 09:33N 51°20' E 004°18'12 1.4
2016-Feb-08 00:33N 51°32' E 004°13'0 0.0
2016-Feb-07 23:32N 51°32' E 004°13'2 1.9
2016-Feb-07 22:32N 51°33' E 004°14'6 5.6
2016-Feb-07 21:29N 51°39' E 004°17'5 5.6
2016-Feb-07 20:33N 51°41' E 004°24'6 6.5
2016-Feb-07 19:33N 51°42' E 004°35'8 8.1
2016-Feb-07 18:34N 51°47' E 004°45'9 8.7
2016-Feb-07 17:33N 51°49' E 004°59'12 9.8
2016-Feb-07 16:21N 51°49' E 005°18'16 8.7
2016-Feb-07 14:32N 51°53' E 005°43'10 7.8
2016-Feb-07 13:12N 51°53' E 005°60'10 9.8
2016-Feb-07 12:10N 51°50' E 006°15'14 8.6
2016-Feb-07 10:33N 51°40' E 006°31'7 7.0
2016-Feb-07 09:33N 51°35' E 006°39'7 6.9
2016-Feb-07 08:33N 51°28' E 006°43'8 7.6
2016-Feb-07 07:33N 51°21' E 006°41'7 7.5
2016-Feb-07 06:33N 51°14' E 006°45'19 1.6
2016-Feb-06 18:30N 50°56' E 006°58'  
2016-Feb-03 15:26N 49°20' E 008°27'8 9.0
2016-Feb-03 14:31N 49°12' E 008°23'1010.7
2016-Feb-03 13:33N 49°02' E 008°18'1 1.3
2016-Feb-03 12:29N 49°01' E 008°20'0 0.0
2016-Feb-03 11:33N 49°01' E 008°20'0 0.0
2016-Feb-03 10:33N 49°01' E 008°20'0 0.0
2016-Feb-03 09:31N 49°01' E 008°20'0 0.0
2016-Feb-03 08:29N 49°01' E 008°20'1 1.1
2016-Feb-03 07:33N 49°01' E 008°18'0 0.0
2016-Feb-03 06:28N 49°01' E 008°18'0 0.0
2016-Feb-03 05:30N 49°01' E 008°18'0 0.0
2016-Feb-03 04:33N 49°01' E 008°18'0 0.0
2016-Feb-03 03:32N 49°01' E 008°18'0 0.0
2016-Feb-03 02:32N 49°01' E 008°18'0 0.0
2016-Feb-03 01:30N 49°01' E 008°18'0 0.0
2016-Feb-03 00:33N 49°01' E 008°18'0 0.0
2016-Feb-02 18:33N 49°01' E 008°18'0 0.0
2016-Feb-02 17:33N 49°01' E 008°18'0 0.0
2016-Feb-02 16:33N 49°01' E 008°18'0 0.0
2016-Feb-02 15:33N 49°01' E 008°18'0 0.0
2016-Feb-02 14:33N 49°01' E 008°18'3 3.3
2016-Feb-02 13:33N 49°04' E 008°20'4 3.7
2016-Feb-02 12:33N 49°08' E 008°22'4 3.8
2016-Feb-02 11:33N 49°11' E 008°23'4 3.8
2016-Feb-02 10:33N 49°15' E 008°25'4 4.2
2016-Feb-02 09:32N 49°18' E 008°29'3 3.4
2016-Feb-02 08:32N 49°21' E 008°29'  
Track history (hours):
 
Tides and Currents Weather Stations Pressure Air Temp Water Temp Dewpoint Dewpoint Depression Visibility Wind Speed Wind Dir Waves Ship Positions

Fidato

Last reported at 2016-Feb-10 10:33 UTC. Time now 2016-Feb-10 10:51 UTC.
Position N 51°15' E 004°25'.

Length 135 m; draft 2.5 m.

Type: Ship. MMSI: 244670975.

Date/timePositionNaut miles runAvg speedWind from/ knotsBaromVisibWave heightAir tempDewpointWater temp
2016-Feb-10 10:33N 51°15' E 004°25'0 0.0
2016-Feb-10 09:33N 51°15' E 004°25'0 0.0
2016-Feb-10 08:33N 51°15' E 004°25'0 0.0
2016-Feb-10 07:34N 51°15' E 004°25'0 0.0
2016-Feb-10 06:33N 51°15' E 004°25'0 0.0
2016-Feb-10 05:34N 51°15' E 004°25'0 0.0
2016-Feb-10 04:33N 51°15' E 004°25'0 0.0
2016-Feb-10 03:33N 51°15' E 004°25'0 0.0
2016-Feb-10 02:33N 51°15' E 004°25'0 0.0
2016-Feb-10 01:34N 51°15' E 004°25'0 0.0
2016-Feb-10 00:33N 51°15' E 004°25'0 0.0
2016-Feb-09 23:33N 51°15' E 004°25'0 0.0
2016-Feb-09 22:34N 51°15' E 004°25'0 0.0
2016-Feb-09 21:33N 51°15' E 004°25'0 0.0
2016-Feb-09 20:33N 51°15' E 004°25'0 0.0
2016-Feb-09 19:34N 51°15' E 004°25'0 0.0
2016-Feb-09 18:34N 51°15' E 004°25'0 0.0
2016-Feb-09 17:33N 51°15' E 004°25'0 0.0
2016-Feb-09 16:33N 51°15' E 004°25'0 0.0
2016-Feb-09 15:34N 51°15' E 004°25'0 0.0
2016-Feb-09 14:33N 51°15' E 004°25'0 0.0
2016-Feb-09 13:34N 51°15' E 004°25'0 0.0
2016-Feb-09 12:33N 51°15' E 004°25'0 0.0
2016-Feb-09 11:34N 51°15' E 004°25'0 0.0
2016-Feb-09 10:34N 51°15' E 004°25'0 0.0
2016-Feb-09 09:33N 51°15' E 004°25'0 0.0
2016-Feb-09 08:34N 51°15' E 004°25'0 0.0
2016-Feb-09 07:33N 51°15' E 004°25'0 0.0
2016-Feb-09 06:34N 51°15' E 004°25'0 0.0
2016-Feb-09 05:33N 51°15' E 004°25'0 0.1
2016-Feb-09 04:33N 51°15' E 004°24'0 0.0
2016-Feb-09 03:33N 51°15' E 004°24'0 0.0
2016-Feb-09 02:34N 51°15' E 004°24'0 0.0
2016-Feb-09 01:33N 51°15' E 004°24'0 0.0
2016-Feb-09 00:33N 51°15' E 004°24'0 0.0
2016-Feb-08 23:34N 51°15' E 004°24'0 0.0
2016-Feb-08 22:33N 51°15' E 004°24'0 0.0
2016-Feb-08 21:34N 51°15' E 004°24'0 0.0
2016-Feb-08 20:33N 51°15' E 004°24'0 0.0
2016-Feb-08 19:33N 51°15' E 004°24'0 0.0
2016-Feb-08 18:33N 51°15' E 004°24'0 0.0
2016-Feb-08 17:34N 51°15' E 004°24'0 0.0
2016-Feb-08 16:33N 51°15' E 004°24'0 0.0
2016-Feb-08 15:33N 51°15' E 004°24'0 0.0
2016-Feb-08 14:34N 51°15' E 004°24'0 0.0
2016-Feb-08 13:33N 51°15' E 004°24'0 0.0
2016-Feb-08 12:33N 51°15' E 004°24'0 0.0
2016-Feb-08 11:33N 51°15' E 004°24'1 0.8
2016-Feb-08 10:33N 51°15' E 004°24'6 6.2
2016-Feb-08 09:33N 51°20' E 004°18'12 1.4
2016-Feb-08 00:33N 51°32' E 004°13'0 0.0
2016-Feb-07 23:32N 51°32' E 004°13'2 1.9
2016-Feb-07 22:32N 51°33' E 004°14'6 5.6
2016-Feb-07 21:29N 51°39' E 004°17'5 5.6
2016-Feb-07 20:33N 51°41' E 004°24'6 6.5
2016-Feb-07 19:33N 51°42' E 004°35'8 8.1
2016-Feb-07 18:34N 51°47' E 004°45'9 8.7
2016-Feb-07 17:33N 51°49' E 004°59'12 9.8
2016-Feb-07 16:21N 51°49' E 005°18'16 8.7
2016-Feb-07 14:32N 51°53' E 005°43'10 7.8
2016-Feb-07 13:12N 51°53' E 005°60'10 9.8
2016-Feb-07 12:10N 51°50' E 006°15'14 8.6
2016-Feb-07 10:33N 51°40' E 006°31'7 7.0
2016-Feb-07 09:33N 51°35' E 006°39'7 6.9
2016-Feb-07 08:33N 51°28' E 006°43'8 7.6
2016-Feb-07 07:33N 51°21' E 006°41'7 7.5
2016-Feb-07 06:33N 51°14' E 006°45'19 1.6
2016-Feb-06 18:30N 50°56' E 006°58'  
2016-Feb-03 15:26N 49°20' E 008°27'8 9.0
2016-Feb-03 14:31N 49°12' E 008°23'1010.7
2016-Feb-03 13:33N 49°02' E 008°18'1 1.3
2016-Feb-03 12:29N 49°01' E 008°20'0 0.0
2016-Feb-03 11:33N 49°01' E 008°20'0 0.0
2016-Feb-03 10:33N 49°01' E 008°20'0 0.0
2016-Feb-03 09:31N 49°01' E 008°20'0 0.0
2016-Feb-03 08:29N 49°01' E 008°20'1 1.1
2016-Feb-03 07:33N 49°01' E 008°18'0 0.0
2016-Feb-03 06:28N 49°01' E 008°18'0 0.0
2016-Feb-03 05:30N 49°01' E 008°18'0 0.0
2016-Feb-03 04:33N 49°01' E 008°18'0 0.0
2016-Feb-03 03:32N 49°01' E 008°18'0 0.0
2016-Feb-03 02:32N 49°01' E 008°18'0 0.0
2016-Feb-03 01:30N 49°01' E 008°18'0 0.0
2016-Feb-03 00:33N 49°01' E 008°18'0 0.0
2016-Feb-02 18:33N 49°01' E 008°18'0 0.0
2016-Feb-02 17:33N 49°01' E 008°18'0 0.0
2016-Feb-02 16:33N 49°01' E 008°18'0 0.0
2016-Feb-02 15:33N 49°01' E 008°18'0 0.0
2016-Feb-02 14:33N 49°01' E 008°18'3 3.3
2016-Feb-02 13:33N 49°04' E 008°20'4 3.7
2016-Feb-02 12:33N 49°08' E 008°22'4 3.8
2016-Feb-02 11:33N 49°11' E 008°23'4 3.8
2016-Feb-02 10:33N 49°15' E 008°25'4 4.2
2016-Feb-02 09:32N 49°18' E 008°29'3 3.4
2016-Feb-02 08:32N 49°21' E 008°29'  

Dump ship's entire track history